sensor_id;sensor_type;location;lat;lon;timestamp;temperature;humidity
30467;DHT22;17258;52.560;13.046;2022-09-13T00:05:37;17.60;58.10
30467;DHT22;17258;52.560;13.046;2022-09-13T00:15:43;17.60;58.20
30467;DHT22;17258;52.560;13.046;2022-09-13T00:25:45;17.50;58.50
30467;DHT22;17258;52.560;13.046;2022-09-13T00:35:46;17.50;58.40
30467;DHT22;17258;52.560;13.046;2022-09-13T00:45:47;17.40;58.50
30467;DHT22;17258;52.560;13.046;2022-09-13T00:55:57;17.40;58.60
30467;DHT22;17258;52.560;13.046;2022-09-13T01:06:04;17.30;58.80
30467;DHT22;17258;52.560;13.046;2022-09-13T01:16:07;17.30;58.80
30467;DHT22;17258;52.560;13.046;2022-09-13T01:26:41;17.30;58.80
30467;DHT22;17258;52.560;13.046;2022-09-13T01:47:51;17.30;59.00
30467;DHT22;17258;52.560;13.046;2022-09-13T01:58:28;17.20;58.90
30467;DHT22;17258;52.560;13.046;2022-09-13T02:08:48;17.20;59.40
30467;DHT22;17258;52.560;13.046;2022-09-13T02:18:55;17.20;59.30
30467;DHT22;17258;52.560;13.046;2022-09-13T02:29:06;17.10;59.20
30467;DHT22;17258;52.560;13.046;2022-09-13T02:39:15;17.10;59.20
30467;DHT22;17258;52.560;13.046;2022-09-13T02:49:30;17.10;59.50
30467;DHT22;17258;52.560;13.046;2022-09-13T02:59:38;17.00;59.70
30467;DHT22;17258;52.560;13.046;2022-09-13T03:09:44;17.10;59.50
30467;DHT22;17258;52.560;13.046;2022-09-13T03:20:17;17.00;59.50
30467;DHT22;17258;52.560;13.046;2022-09-13T03:30:24;17.00;60.00
30467;DHT22;17258;52.560;13.046;2022-09-13T03:40:41;17.00;59.60
30467;DHT22;17258;52.560;13.046;2022-09-13T03:50:46;17.00;60.30
30467;DHT22;17258;52.560;13.046;2022-09-13T04:00:47;17.00;59.80
30467;DHT22;17258;52.560;13.046;2022-09-13T04:10:49;17.10;60.00
30467;DHT22;17258;52.560;13.046;2022-09-13T04:20:56;17.10;60.00
30467;DHT22;17258;52.560;13.046;2022-09-13T04:30:57;17.20;60.30
30467;DHT22;17258;52.560;13.046;2022-09-13T04:40:58;17.30;60.30
30467;DHT22;17258;52.560;13.046;2022-09-13T04:51:03;17.30;60.40
30467;DHT22;17258;52.560;13.046;2022-09-13T05:01:06;17.40;60.80
30467;DHT22;17258;52.560;13.046;2022-09-13T05:11:07;17.50;60.70
30467;DHT22;17258;52.560;13.046;2022-09-13T05:21:08;17.70;60.90
30467;DHT22;17258;52.560;13.046;2022-09-13T05:31:15;17.80;61.00
30467;DHT22;17258;52.560;13.046;2022-09-13T05:41:20;17.90;61.40
30467;DHT22;17258;52.560;13.046;2022-09-13T05:51:21;18.00;61.10
30467;DHT22;17258;52.560;13.046;2022-09-13T06:01:24;18.20;61.20
30467;DHT22;17258;52.560;13.046;2022-09-13T06:11:26;18.20;61.30
30467;DHT22;17258;52.560;13.046;2022-09-13T06:21:26;18.40;61.40
30467;DHT22;17258;52.560;13.046;2022-09-13T06:31:27;18.40;61.30
30467;DHT22;17258;52.560;13.046;2022-09-13T06:41:29;18.50;61.40
30467;DHT22;17258;52.560;13.046;2022-09-13T06:51:30;18.60;61.70
30467;DHT22;17258;52.560;13.046;2022-09-13T07:01:33;18.80;61.80
30467;DHT22;17258;52.560;13.046;2022-09-13T07:11:40;18.90;62.00
30467;DHT22;17258;52.560;13.046;2022-09-13T07:21:41;19.10;62.10
30467;DHT22;17258;52.560;13.046;2022-09-13T07:31:44;19.30;62.30
30467;DHT22;17258;52.560;13.046;2022-09-13T07:41:46;19.60;62.60
30467;DHT22;17258;52.560;13.046;2022-09-13T07:51:47;19.80;62.60
30467;DHT22;17258;52.560;13.046;2022-09-13T08:01:50;20.10;62.70
30467;DHT22;17258;52.560;13.046;2022-09-13T08:11:51;20.40;62.80
30467;DHT22;17258;52.560;13.046;2022-09-13T08:21:52;20.60;62.60
30467;DHT22;17258;52.560;13.046;2022-09-13T08:31:52;20.80;62.50
30467;DHT22;17258;52.560;13.046;2022-09-13T08:42:02;21.00;62.60
30467;DHT22;17258;52.560;13.046;2022-09-13T08:52:37;21.20;62.90
30467;DHT22;17258;52.560;13.046;2022-09-13T09:03:07;21.40;63.00
30467;DHT22;17258;52.560;13.046;2022-09-13T09:23:38;21.90;62.90
30467;DHT22;17258;52.560;13.046;2022-09-13T09:34:00;22.10;62.90
30467;DHT22;17258;52.560;13.046;2022-09-13T09:44:45;22.40;63.20
30467;DHT22;17258;52.560;13.046;2022-09-13T09:54:51;22.80;62.80
30467;DHT22;17258;52.560;13.046;2022-09-13T10:04:56;23.10;62.80
30467;DHT22;17258;52.560;13.046;2022-09-13T10:15:19;23.50;62.50
30467;DHT22;17258;52.560;13.046;2022-09-13T10:35:23;24.00;61.50
30467;DHT22;17258;52.560;13.046;2022-09-13T10:45:26;24.10;61.10
30467;DHT22;17258;52.560;13.046;2022-09-13T10:55:32;24.20;60.60
30467;DHT22;17258;52.560;13.046;2022-09-13T11:05:46;24.30;60.00
30467;DHT22;17258;52.560;13.046;2022-09-13T11:26:43;24.20;60.00
30467;DHT22;17258;52.560;13.046;2022-09-13T11:57:34;23.90;60.30
30467;DHT22;17258;52.560;13.046;2022-09-13T12:07:48;23.80;60.90
30467;DHT22;17258;52.560;13.046;2022-09-13T12:18:00;23.60;60.90
30467;DHT22;17258;52.560;13.046;2022-09-13T12:28:25;23.60;61.40
30467;DHT22;17258;52.560;13.046;2022-09-13T12:49:37;23.70;62.20
30467;DHT22;17258;52.560;13.046;2022-09-13T13:00:25;23.80;61.90
30467;DHT22;17258;52.560;13.046;2022-09-13T13:10:36;23.80;62.00
30467;DHT22;17258;52.560;13.046;2022-09-13T13:30:53;23.90;62.20
30467;DHT22;17258;52.560;13.046;2022-09-13T13:41:05;24.10;62.20
30467;DHT22;17258;52.560;13.046;2022-09-13T13:51:27;24.40;62.30
30467;DHT22;17258;52.560;13.046;2022-09-13T14:01:31;24.50;61.80
30467;DHT22;17258;52.560;13.046;2022-09-13T14:11:46;24.70;62.00
30467;DHT22;17258;52.560;13.046;2022-09-13T14:22:19;24.90;61.50
30467;DHT22;17258;52.560;13.046;2022-09-13T14:32:27;25.00;61.40
30467;DHT22;17258;52.560;13.046;2022-09-13T14:42:43;25.10;60.90
30467;DHT22;17258;52.560;13.046;2022-09-13T14:52:56;25.10;60.80
30467;DHT22;17258;52.560;13.046;2022-09-13T15:03:03;25.20;60.70
30467;DHT22;17258;52.560;13.046;2022-09-13T15:13:10;25.20;60.50
30467;DHT22;17258;52.560;13.046;2022-09-13T15:23:16;25.20;60.50
30467;DHT22;17258;52.560;13.046;2022-09-13T15:33:29;25.20;60.40
30467;DHT22;17258;52.560;13.046;2022-09-13T15:43:30;25.20;60.20
30467;DHT22;17258;52.560;13.046;2022-09-13T15:53:31;25.20;60.10
30467;DHT22;17258;52.560;13.046;2022-09-13T16:03:32;25.20;60.10
30467;DHT22;17258;52.560;13.046;2022-09-13T16:13:33;25.20;59.90
30467;DHT22;17258;52.560;13.046;2022-09-13T16:23:34;25.10;59.80
30467;DHT22;17258;52.560;13.046;2022-09-13T16:33:35;25.00;59.80
30467;DHT22;17258;52.560;13.046;2022-09-13T16:43:36;24.90;59.90
30467;DHT22;17258;52.560;13.046;2022-09-13T16:53:38;24.80;59.80
30467;DHT22;17258;52.560;13.046;2022-09-13T17:03:40;24.70;59.90
30467;DHT22;17258;52.560;13.046;2022-09-13T17:13:41;24.60;60.10
30467;DHT22;17258;52.560;13.046;2022-09-13T17:23:42;24.50;60.00
30467;DHT22;17258;52.560;13.046;2022-09-13T17:33:42;24.40;59.80
30467;DHT22;17258;52.560;13.046;2022-09-13T17:43:44;24.30;59.80
30467;DHT22;17258;52.560;13.046;2022-09-13T17:53:48;24.10;59.80
30467;DHT22;17258;52.560;13.046;2022-09-13T18:03:49;24.00;59.70
30467;DHT22;17258;52.560;13.046;2022-09-13T18:13:53;23.80;59.70
30467;DHT22;17258;52.560;13.046;2022-09-13T18:23:56;23.60;59.80
30467;DHT22;17258;52.560;13.046;2022-09-13T18:34:01;23.40;59.80
30467;DHT22;17258;52.560;13.046;2022-09-13T18:44:05;23.20;59.80
30467;DHT22;17258;52.560;13.046;2022-09-13T18:54:07;23.00;59.80
30467;DHT22;17258;52.560;13.046;2022-09-13T19:04:16;22.70;59.80
30467;DHT22;17258;52.560;13.046;2022-09-13T19:14:23;22.50;59.90
30467;DHT22;17258;52.560;13.046;2022-09-13T19:24:26;22.30;59.90
30467;DHT22;17258;52.560;13.046;2022-09-13T19:34:27;21.90;60.50
30467;DHT22;17258;52.560;13.046;2022-09-13T19:44:28;21.90;60.00
30467;DHT22;17258;52.560;13.046;2022-09-13T19:54:29;21.70;60.00
30467;DHT22;17258;52.560;13.046;2022-09-13T20:04:29;21.50;60.00
30467;DHT22;17258;52.560;13.046;2022-09-13T20:14:30;21.30;60.20
30467;DHT22;17258;52.560;13.046;2022-09-13T20:24:31;21.10;60.20
30467;DHT22;17258;52.560;13.046;2022-09-13T20:34:32;21.00;60.40
30467;DHT22;17258;52.560;13.046;2022-09-13T20:44:34;20.80;60.40
30467;DHT22;17258;52.560;13.046;2022-09-13T20:54:35;20.60;60.50
30467;DHT22;17258;52.560;13.046;2022-09-13T21:04:35;20.50;60.70
30467;DHT22;17258;52.560;13.046;2022-09-13T21:14:36;20.30;60.80
30467;DHT22;17258;52.560;13.046;2022-09-13T21:24:37;20.20;60.90
30467;DHT22;17258;52.560;13.046;2022-09-13T21:34:37;20.10;60.90
30467;DHT22;17258;52.560;13.046;2022-09-13T21:44:38;20.00;60.90
30467;DHT22;17258;52.560;13.046;2022-09-13T21:54:39;19.80;60.80
30467;DHT22;17258;52.560;13.046;2022-09-13T22:16:05;19.50;61.10
30467;DHT22;17258;52.560;13.046;2022-09-13T22:26:10;19.40;60.90
30467;DHT22;17258;52.560;13.046;2022-09-13T22:36:15;19.30;60.80
30467;DHT22;17258;52.560;13.046;2022-09-13T22:46:21;19.10;60.80
30467;DHT22;17258;52.560;13.046;2022-09-13T22:56:36;18.90;60.90
30467;DHT22;17258;52.560;13.046;2022-09-13T23:06:37;18.80;60.90
30467;DHT22;17258;52.560;13.046;2022-09-13T23:16:40;18.70;60.90
30467;DHT22;17258;52.560;13.046;2022-09-13T23:26:43;18.50;61.10
30467;DHT22;17258;52.560;13.046;2022-09-13T23:36:45;18.40;61.10
30467;DHT22;17258;52.560;13.046;2022-09-13T23:46:45;18.30;61.20
30467;DHT22;17258;52.560;13.046;2022-09-13T23:56:46;18.20;61.20
